createdAt,value
2022-11-26T00:01:47.980Z,74.50
2022-11-26T00:05:15.890Z,74.43
2022-11-26T00:08:44.892Z,74.48
2022-11-26T00:12:21.185Z,74.29
2022-11-26T00:15:49.290Z,74.56
2022-11-26T00:19:16.023Z,74.52
2022-11-26T00:22:45.600Z,74.40
2022-11-26T00:26:17.923Z,74.15
2022-11-26T00:29:44.868Z,74.38
2022-11-26T00:33:11.861Z,74.30
2022-11-26T00:36:38.669Z,74.49
2022-11-26T00:40:05.380Z,74.40
2022-11-26T00:43:32.160Z,74.63
2022-11-26T00:46:58.919Z,74.45
2022-11-26T00:50:28.700Z,74.57
2022-11-26T00:53:57.713Z,74.51
2022-11-26T00:57:24.238Z,74.52
2022-11-26T01:00:52.940Z,74.49
2022-11-26T01:04:19.796Z,74.50
2022-11-26T01:07:50.655Z,74.35
2022-11-26T01:11:21.524Z,74.37
2022-11-26T01:14:49.358Z,74.29
2022-11-26T01:18:19.160Z,74.14
2022-11-26T01:21:47.150Z,74.25
2022-11-26T01:25:13.935Z,74.15
2022-11-26T01:28:40.422Z,74.19
2022-11-26T01:32:07.503Z,74.02
2022-11-26T01:35:35.012Z,74.01
2022-11-26T01:39:04.403Z,73.95
2022-11-26T01:42:45.142Z,73.93
2022-11-26T01:46:17.568Z,73.99
2022-11-26T01:49:44.268Z,74.11
2022-11-26T01:53:15.760Z,74.04
2022-11-26T01:56:46.976Z,73.98
2022-11-26T02:00:16.544Z,73.95
2022-11-26T02:03:50.464Z,73.96
2022-11-26T02:07:17.067Z,74.01
2022-11-26T02:10:45.021Z,74.12
2022-11-26T02:14:15.494Z,74.29
2022-11-26T02:17:46.104Z,74.07
2022-11-26T02:21:20.164Z,74.29
2022-11-26T02:24:54.747Z,74.17
2022-11-26T02:28:58.961Z,74.11
2022-11-26T02:32:30.259Z,74.07
2022-11-26T02:36:02.020Z,73.94
2022-11-26T02:39:32.253Z,73.81
2022-11-26T02:42:59.277Z,73.75
2022-11-26T02:46:26.013Z,73.69
2022-11-26T02:49:54.705Z,73.85
2022-11-26T02:53:25.134Z,73.54
2022-11-26T02:56:53.277Z,73.51
2022-11-26T03:00:22.091Z,73.41
2022-11-26T03:03:54.255Z,73.73
2022-11-26T03:07:21.722Z,73.69
2022-11-26T03:10:48.534Z,73.73
2022-11-26T03:14:14.984Z,73.86
2022-11-26T03:17:41.878Z,73.95
2022-11-26T03:21:08.885Z,74.12
2022-11-26T03:24:35.988Z,74.34
2022-11-26T03:28:03.247Z,74.54
2022-11-26T03:31:30.593Z,74.53
2022-11-26T03:34:57.409Z,74.53
2022-11-26T03:38:23.799Z,74.58
2022-11-26T03:41:50.582Z,74.62
2022-11-26T03:45:18.321Z,74.68
2022-11-26T03:48:45.257Z,74.79
2022-11-26T03:52:11.876Z,74.87
2022-11-26T03:55:39.024Z,74.69
2022-11-26T03:59:05.921Z,74.80
2022-11-26T04:02:33.130Z,74.74
2022-11-26T04:06:03.357Z,74.89
2022-11-26T04:09:33.085Z,74.93
2022-11-26T04:13:00.696Z,74.78
2022-11-26T04:16:27.899Z,74.83
2022-11-26T04:19:54.488Z,74.95
2022-11-26T04:23:21.182Z,74.80
2022-11-26T04:26:47.877Z,74.97
2022-11-26T04:30:17.081Z,75.03
2022-11-26T04:33:44.046Z,75.28
2022-11-26T04:37:10.899Z,75.37
2022-11-26T04:40:38.370Z,75.36
2022-11-26T04:44:05.280Z,75.65
2022-11-26T04:47:31.955Z,75.70
2022-11-26T04:50:59.103Z,75.71
2022-11-26T04:54:26.164Z,75.62
2022-11-26T04:57:52.785Z,75.50
2022-11-26T05:01:19.491Z,75.68
2022-11-26T05:04:46.686Z,75.84
2022-11-26T05:08:13.553Z,75.70
2022-11-26T05:11:40.260Z,75.51
2022-11-26T05:15:08.716Z,75.31
2022-11-26T05:18:35.502Z,75.57
2022-11-26T05:22:02.249Z,75.70
2022-11-26T05:25:29.609Z,75.52
2022-11-26T05:28:57.098Z,75.45
2022-11-26T05:32:24.253Z,75.19
2022-11-26T05:35:52.660Z,75.33
2022-11-26T05:39:19.372Z,75.39
2022-11-26T05:42:45.822Z,75.46
2022-11-26T05:46:13.348Z,75.33
2022-11-26T05:49:40.251Z,75.36
2022-11-26T05:53:07.073Z,75.48
2022-11-26T05:56:34.304Z,75.81
2022-11-26T06:00:00.785Z,75.86
2022-11-26T06:03:29.656Z,75.87
2022-11-26T06:06:56.743Z,75.92
2022-11-26T06:10:23.962Z,75.98
2022-11-26T06:13:50.896Z,75.96
2022-11-26T06:17:19.649Z,76.06
2022-11-26T06:20:46.652Z,75.96
2022-11-26T06:24:14.111Z,75.99
2022-11-26T06:27:45.258Z,75.84
2022-11-26T06:31:14.807Z,75.94
2022-11-26T06:34:43.873Z,75.90
2022-11-26T06:38:11.252Z,75.85
2022-11-26T06:41:38.354Z,76.06
2022-11-26T06:45:05.470Z,76.11
2022-11-26T06:48:32.726Z,76.02
2022-11-26T06:51:59.664Z,76.04
2022-11-26T06:55:26.588Z,76.01
2022-11-26T06:58:55.356Z,76.05
2022-11-26T07:02:22.276Z,76.00
2022-11-26T07:05:49.085Z,76.01
2022-11-26T07:09:16.804Z,76.02
2022-11-26T07:12:43.494Z,76.32
2022-11-26T07:16:13.350Z,76.24
2022-11-26T07:19:41.767Z,76.37
2022-11-26T07:23:08.441Z,76.62
2022-11-26T07:26:39.827Z,76.66
2022-11-26T07:30:19.708Z,76.56
2022-11-26T07:33:55.664Z,76.43
2022-11-26T07:37:23.003Z,76.48
2022-11-26T07:40:57.442Z,76.48
2022-11-26T07:44:23.292Z,76.43
2022-11-26T07:47:50.829Z,76.20
2022-11-26T07:51:25.570Z,76.29
2022-11-26T07:54:53.224Z,76.06
2022-11-26T07:58:21.654Z,76.15
2022-11-26T08:01:49.110Z,76.07
2022-11-26T08:05:19.967Z,76.22
2022-11-26T08:08:47.570Z,76.03
2022-11-26T08:12:17.350Z,76.06
2022-11-26T08:15:45.071Z,76.00
2022-11-26T08:19:15.245Z,76.14
2022-11-26T08:22:42.470Z,76.12
2022-11-26T08:26:23.909Z,76.30
2022-11-26T08:29:55.219Z,76.56
2022-11-26T08:33:22.642Z,76.48
2022-11-26T08:36:49.507Z,76.64
2022-11-26T08:40:18.121Z,76.74
2022-11-26T08:44:05.826Z,76.58
2022-11-26T08:47:33.187Z,76.44
2022-11-26T08:51:03.614Z,76.40
2022-11-26T08:54:35.197Z,76.40
2022-11-26T08:58:04.313Z,76.35
2022-11-26T09:01:33.582Z,76.31
2022-11-26T09:05:01.548Z,76.32
2022-11-26T09:08:28.736Z,76.27
2022-11-26T09:11:59.383Z,76.26
2022-11-26T09:15:26.502Z,76.24
2022-11-26T09:18:56.521Z,76.26
2022-11-26T09:22:25.073Z,76.32
2022-11-26T09:25:54.268Z,76.52
2022-11-26T09:29:22.705Z,76.51
2022-11-26T09:32:49.859Z,76.64
2022-11-26T09:36:18.555Z,76.55
2022-11-26T09:39:45.878Z,76.90
2022-11-26T09:43:24.482Z,76.77
2022-11-26T09:47:15.642Z,76.74
2022-11-26T09:50:43.794Z,76.79
2022-11-26T09:54:18.131Z,76.76
2022-11-26T09:57:52.801Z,76.75
2022-11-26T10:01:24.599Z,76.58
2022-11-26T10:04:54.634Z,76.59
2022-11-26T10:08:46.226Z,76.57
2022-11-26T10:12:26.479Z,76.54
2022-11-26T10:16:06.773Z,76.45
2022-11-26T10:19:44.023Z,76.41
2022-11-26T10:23:24.108Z,76.33
2022-11-26T10:26:51.667Z,76.38
2022-11-26T10:30:24.910Z,76.41
2022-11-26T10:33:55.812Z,76.52
2022-11-26T10:37:23.431Z,76.77
2022-11-26T10:40:50.411Z,76.91
2022-11-26T10:44:40.568Z,76.72
2022-11-26T10:48:23.850Z,76.94
2022-11-26T10:52:01.049Z,77.07
2022-11-26T10:55:31.383Z,77.11
2022-11-26T10:59:02.926Z,77.15
2022-11-26T11:02:37.433Z,77.05
2022-11-26T11:06:36.402Z,77.08
2022-11-26T11:10:20.637Z,76.79
2022-11-26T11:13:48.486Z,76.74
2022-11-26T11:17:36.263Z,76.55
2022-11-26T11:21:04.726Z,76.70
2022-11-26T11:24:32.895Z,76.77
2022-11-26T11:28:10.480Z,76.68
2022-11-26T11:31:48.408Z,76.63
2022-11-26T11:35:31.352Z,76.74
2022-11-26T11:39:00.186Z,76.73
2022-11-26T11:42:29.942Z,76.52
2022-11-26T11:46:10.927Z,76.53
2022-11-26T11:50:00.607Z,76.56
2022-11-26T11:53:38.035Z,76.75
2022-11-26T11:57:15.102Z,76.82
2022-11-26T12:00:48.765Z,76.95
2022-11-26T12:04:39.568Z,76.88
2022-11-26T12:08:19.121Z,76.84
2022-11-26T12:11:55.984Z,76.76
2022-11-26T12:15:29.902Z,76.93
2022-11-26T12:19:05.452Z,76.82
2022-11-26T12:22:38.512Z,76.56
2022-11-26T12:26:14.859Z,76.44
2022-11-26T12:29:48.722Z,76.60
2022-11-26T12:33:21.001Z,76.62
2022-11-26T12:36:54.125Z,76.40
2022-11-26T12:40:34.679Z,76.54
2022-11-26T12:44:16.210Z,76.53
2022-11-26T12:47:51.331Z,76.26
2022-11-26T12:51:24.847Z,76.49
2022-11-26T12:54:53.887Z,76.44
2022-11-26T12:58:25.450Z,76.41
2022-11-26T13:01:55.370Z,76.41
2022-11-26T13:05:29.507Z,76.37
2022-11-26T13:09:05.816Z,76.58
2022-11-26T13:12:43.003Z,76.65
2022-11-26T13:16:24.002Z,76.81
2022-11-26T13:19:55.346Z,77.05
2022-11-26T13:23:49.794Z,76.72
2022-11-26T13:27:35.764Z,76.88
2022-11-26T13:31:22.666Z,77.08
2022-11-26T13:35:14.526Z,76.79
2022-11-26T13:38:58.515Z,76.59
2022-11-26T13:42:46.104Z,76.55
2022-11-26T13:46:22.364Z,76.58
2022-11-26T13:49:54.589Z,76.49
2022-11-26T13:53:27.283Z,76.60
2022-11-26T13:57:02.794Z,76.47
2022-11-26T14:00:34.098Z,76.44
2022-11-26T14:04:01.140Z,76.42
2022-11-26T14:07:28.898Z,76.32
2022-11-26T14:10:56.604Z,76.39
2022-11-26T14:14:39.453Z,76.75
2022-11-26T14:18:07.132Z,76.71
2022-11-26T14:21:54.678Z,76.84
2022-11-26T14:25:41.327Z,76.84
2022-11-26T14:29:22.128Z,76.85
2022-11-26T14:32:54.854Z,77.05
2022-11-26T14:36:26.560Z,76.97
2022-11-26T14:40:06.451Z,76.95
2022-11-26T14:43:33.472Z,77.10
2022-11-26T14:47:16.761Z,76.87
2022-11-26T14:50:47.899Z,76.57
2022-11-26T14:54:24.052Z,76.65
2022-11-26T14:57:57.530Z,76.63
2022-11-26T15:01:24.001Z,76.56
2022-11-26T15:05:00.684Z,76.65
2022-11-26T15:08:30.303Z,76.82
2022-11-26T15:12:05.163Z,76.61
2022-11-26T15:15:31.927Z,76.70
2022-11-26T15:18:59.450Z,76.49
2022-11-26T15:22:34.384Z,76.56
2022-11-26T15:26:02.055Z,76.45
2022-11-26T15:29:36.638Z,76.55
2022-11-26T15:33:06.394Z,76.62
2022-11-26T15:36:35.401Z,76.73
2022-11-26T15:40:24.888Z,76.68
2022-11-26T15:43:55.475Z,76.63
2022-11-26T15:47:27.202Z,76.91
2022-11-26T15:50:56.447Z,76.94
2022-11-26T15:54:43.538Z,76.87
2022-11-26T15:58:21.581Z,76.96
2022-11-26T16:01:47.572Z,76.89
2022-11-26T16:05:29.096Z,77.00
2022-11-26T16:09:05.480Z,76.60
2022-11-26T16:12:35.344Z,76.72
2022-11-26T16:16:07.990Z,76.66
2022-11-26T16:19:36.008Z,76.68
2022-11-26T16:23:03.266Z,76.67
2022-11-26T16:26:30.996Z,76.66
2022-11-26T16:29:58.004Z,76.60
2022-11-26T16:33:24.846Z,76.72
2022-11-26T16:36:52.671Z,76.81
2022-11-26T16:40:20.713Z,76.92
2022-11-26T16:43:47.968Z,77.00
2022-11-26T16:47:23.909Z,77.13
2022-11-26T16:50:50.929Z,77.12
2022-11-26T16:54:25.246Z,77.31
2022-11-26T16:57:57.117Z,77.26
2022-11-26T17:01:25.100Z,77.16
2022-11-26T17:04:53.775Z,77.15
2022-11-26T17:08:21.415Z,77.05
2022-11-26T17:11:49.442Z,76.95
2022-11-26T17:15:16.718Z,76.95
2022-11-26T17:18:43.797Z,76.72
2022-11-26T17:22:11.791Z,76.79
2022-11-26T17:25:42.095Z,76.76
2022-11-26T17:29:11.664Z,76.69
2022-11-26T17:32:41.427Z,76.61
2022-11-26T17:36:16.777Z,76.71
2022-11-26T17:39:44.524Z,76.53
2022-11-26T17:43:13.519Z,76.57
2022-11-26T17:47:09.107Z,76.92
2022-11-26T17:50:30.204Z,77.17
2022-11-26T17:53:57.004Z,77.35
2022-11-26T17:57:25.732Z,77.24
2022-11-26T18:00:53.321Z,77.30
2022-11-26T18:04:20.859Z,77.52
2022-11-26T18:07:47.764Z,77.27
2022-11-26T18:11:16.236Z,77.31
2022-11-26T18:14:45.211Z,77.10
2022-11-26T18:18:12.065Z,77.01
2022-11-26T18:21:40.039Z,77.22
2022-11-26T18:25:08.119Z,76.84
2022-11-26T18:28:38.179Z,76.88
2022-11-26T18:32:21.644Z,76.74
2022-11-26T18:35:51.918Z,76.74
2022-11-26T18:39:18.831Z,76.62
2022-11-26T18:42:47.047Z,76.75
2022-11-26T18:46:19.815Z,76.61
2022-11-26T18:49:49.843Z,76.56
2022-11-26T18:53:19.389Z,76.59
2022-11-26T18:56:46.446Z,76.79
2022-11-26T19:00:19.697Z,76.91
2022-11-26T19:03:48.384Z,76.88
2022-11-26T19:07:17.291Z,77.08
2022-11-26T19:10:44.248Z,76.90
2022-11-26T19:14:14.307Z,76.85
2022-11-26T19:17:41.252Z,77.04
2022-11-26T19:21:09.180Z,77.00
2022-11-26T19:24:41.058Z,76.92
2022-11-26T19:28:10.156Z,76.90
2022-11-26T19:31:40.267Z,76.97
2022-11-26T19:35:07.991Z,76.95
2022-11-26T19:38:34.894Z,77.05
2022-11-26T19:42:01.513Z,76.84
2022-11-26T19:45:28.754Z,76.80
2022-11-26T19:48:56.864Z,76.97
2022-11-26T19:52:26.194Z,76.92
2022-11-26T19:56:02.677Z,76.82
2022-11-26T19:59:29.207Z,76.85
2022-11-26T20:03:00.657Z,77.08
2022-11-26T20:06:32.351Z,77.08
2022-11-26T20:10:08.010Z,77.21
2022-11-26T20:13:36.553Z,77.50
2022-11-26T20:17:03.348Z,77.21
2022-11-26T20:20:30.094Z,77.47
2022-11-26T20:23:59.136Z,77.45
2022-11-26T20:27:26.251Z,77.59
2022-11-26T20:30:53.332Z,77.30
2022-11-26T20:34:22.448Z,77.02
2022-11-26T20:37:51.556Z,76.83
2022-11-26T20:41:21.270Z,76.75
2022-11-26T20:44:50.269Z,76.63
2022-11-26T20:48:19.071Z,76.89
2022-11-26T20:51:46.295Z,76.65
2022-11-26T20:55:14.098Z,76.57
2022-11-26T20:59:01.228Z,76.83
2022-11-26T21:02:29.385Z,77.02
2022-11-26T21:05:59.977Z,76.81
2022-11-26T21:09:26.694Z,76.77
2022-11-26T21:13:00.449Z,76.97
2022-11-26T21:16:27.737Z,77.01
2022-11-26T21:19:58.359Z,76.87
2022-11-26T21:23:26.811Z,77.16
2022-11-26T21:26:53.452Z,77.26
2022-11-26T21:30:22.860Z,77.55
2022-11-26T21:33:59.343Z,77.28
2022-11-26T21:37:26.715Z,77.46
2022-11-26T21:40:54.619Z,77.25
2022-11-26T21:44:21.340Z,77.46
2022-11-26T21:47:52.559Z,77.27
2022-11-26T21:51:26.045Z,77.19
2022-11-26T21:54:58.429Z,76.96
2022-11-26T21:58:32.697Z,77.01
2022-11-26T22:01:59.969Z,76.96
2022-11-26T22:05:26.602Z,76.76
2022-11-26T22:09:01.940Z,77.09
2022-11-26T22:12:30.135Z,76.94
2022-11-26T22:15:56.995Z,76.96
2022-11-26T22:19:32.468Z,77.05
2022-11-26T22:23:02.129Z,77.26
2022-11-26T22:26:30.116Z,77.23
2022-11-26T22:30:00.491Z,77.31
2022-11-26T22:33:26.942Z,77.48
2022-11-26T22:36:53.434Z,77.29
2022-11-26T22:40:20.087Z,77.42
2022-11-26T22:43:47.189Z,77.39
2022-11-26T22:47:14.192Z,77.46
2022-11-26T22:50:40.936Z,77.76
2022-11-26T22:54:11.664Z,77.38
2022-11-26T22:57:39.797Z,77.35
2022-11-26T23:01:09.344Z,77.27
2022-11-26T23:04:38.823Z,77.31
2022-11-26T23:08:06.412Z,77.20
2022-11-26T23:11:36.316Z,77.08
2022-11-26T23:15:06.420Z,76.98
2022-11-26T23:18:33.237Z,77.15
2022-11-26T23:22:00.009Z,77.05
2022-11-26T23:25:26.763Z,77.12
2022-11-26T23:28:53.399Z,77.15
2022-11-26T23:32:20.638Z,77.32
2022-11-26T23:35:47.390Z,77.40
2022-11-26T23:39:16.443Z,77.47
2022-11-26T23:42:43.972Z,77.39
2022-11-26T23:46:14.518Z,77.53
2022-11-26T23:49:41.294Z,77.83
2022-11-26T23:53:07.983Z,77.64
2022-11-26T23:56:50.316Z,77.56
